sensor_id;sensor_type;location;lat;lon;timestamp;pressure;altitude;pressure_sealevel;temperature;humidity
55486;BME280;49383;-25.924;28.194;2023-06-22T00:00:11;85499.60;;;17.92;23.64
55486;BME280;49383;-25.924;28.194;2023-06-22T00:02:36;85504.29;;;17.92;23.64
55486;BME280;49383;-25.924;28.194;2023-06-22T00:05:02;85505.46;;;18.21;23.60
55486;BME280;49383;-25.924;28.194;2023-06-22T00:07:28;85500.39;;;17.90;23.59
55486;BME280;49383;-25.924;28.194;2023-06-22T00:09:53;85498.99;;;18.04;23.49
55486;BME280;49383;-25.924;28.194;2023-06-22T00:12:18;85501.34;;;17.98;23.54
55486;BME280;49383;-25.924;28.194;2023-06-22T00:14:43;85505.95;;;17.92;23.60
55486;BME280;49383;-25.924;28.194;2023-06-22T00:17:09;85506.31;;;18.01;23.49
55486;BME280;49383;-25.924;28.194;2023-06-22T00:19:35;85507.06;;;17.98;23.52
55486;BME280;49383;-25.924;28.194;2023-06-22T00:22:00;85507.50;;;17.94;23.55
55486;BME280;49383;-25.924;28.194;2023-06-22T00:24:26;85505.19;;;17.98;23.47
55486;BME280;49383;-25.924;28.194;2023-06-22T00:26:51;85509.23;;;17.96;23.47
55486;BME280;49383;-25.924;28.194;2023-06-22T00:29:17;85511.36;;;17.89;23.51
55486;BME280;49383;-25.924;28.194;2023-06-22T00:31:42;85505.29;;;18.19;23.51
55486;BME280;49383;-25.924;28.194;2023-06-22T00:34:08;85500.93;;;17.87;23.53
55486;BME280;49383;-25.924;28.194;2023-06-22T00:36:33;85499.57;;;17.83;23.55
55486;BME280;49383;-25.924;28.194;2023-06-22T00:38:58;85496.09;;;17.83;23.53
55486;BME280;49383;-25.924;28.194;2023-06-22T00:41:23;85496.01;;;17.82;23.53
55486;BME280;49383;-25.924;28.194;2023-06-22T00:43:48;85496.43;;;17.93;23.46
55486;BME280;49383;-25.924;28.194;2023-06-22T00:46:14;85497.64;;;17.85;23.49
55486;BME280;49383;-25.924;28.194;2023-06-22T00:48:39;85496.11;;;17.85;23.49
55486;BME280;49383;-25.924;28.194;2023-06-22T00:51:05;85497.80;;;17.85;23.47
55486;BME280;49383;-25.924;28.194;2023-06-22T00:53:30;85496.81;;;17.81;23.49
55486;BME280;49383;-25.924;28.194;2023-06-22T00:55:55;85496.00;;;17.80;23.47
55486;BME280;49383;-25.924;28.194;2023-06-22T00:58:21;85500.19;;;17.77;23.47
55486;BME280;49383;-25.924;28.194;2023-06-22T01:00:46;85500.62;;;17.81;23.45
55486;BME280;49383;-25.924;28.194;2023-06-22T01:03:11;85503.71;;;17.82;23.44
55486;BME280;49383;-25.924;28.194;2023-06-22T01:05:38;85504.60;;;17.77;23.46
55486;BME280;49383;-25.924;28.194;2023-06-22T01:08:16;85505.89;;;17.73;23.46
55486;BME280;49383;-25.924;28.194;2023-06-22T01:10:35;85505.36;;;17.82;23.39
55486;BME280;49383;-25.924;28.194;2023-06-22T01:12:55;85504.32;;;18.20;23.31
55486;BME280;49383;-25.924;28.194;2023-06-22T01:15:23;85502.41;;;17.76;23.41
55486;BME280;49383;-25.924;28.194;2023-06-22T01:17:44;85503.44;;;17.81;23.35
55486;BME280;49383;-25.924;28.194;2023-06-22T01:20:10;85501.77;;;18.03;23.38
55486;BME280;49383;-25.924;28.194;2023-06-22T01:22:48;85505.48;;;17.75;23.40
55486;BME280;49383;-25.924;28.194;2023-06-22T01:25:07;85506.57;;;18.23;23.40
55486;BME280;49383;-25.924;28.194;2023-06-22T01:27:36;85505.42;;;17.70;23.43
55486;BME280;49383;-25.924;28.194;2023-06-22T01:29:53;85506.98;;;17.91;23.45
55486;BME280;49383;-25.924;28.194;2023-06-22T01:32:17;85511.64;;;17.66;23.42
55486;BME280;49383;-25.924;28.194;2023-06-22T01:34:43;85512.72;;;17.89;23.43
55486;BME280;49383;-25.924;28.194;2023-06-22T01:37:08;85512.75;;;17.65;23.39
55486;BME280;49383;-25.924;28.194;2023-06-22T01:39:33;85510.59;;;17.68;23.38
55486;BME280;49383;-25.924;28.194;2023-06-22T01:41:59;85509.16;;;17.73;23.36
55486;BME280;49383;-25.924;28.194;2023-06-22T01:44:24;85507.24;;;17.60;23.41
55486;BME280;49383;-25.924;28.194;2023-06-22T01:46:50;85507.00;;;17.62;23.40
55486;BME280;49383;-25.924;28.194;2023-06-22T01:49:15;85507.06;;;17.66;23.39
55486;BME280;49383;-25.924;28.194;2023-06-22T01:51:40;85504.21;;;17.65;23.38
55486;BME280;49383;-25.924;28.194;2023-06-22T01:54:07;85498.39;;;17.66;23.38
55486;BME280;49383;-25.924;28.194;2023-06-22T01:56:31;85499.80;;;17.61;23.40
55486;BME280;49383;-25.924;28.194;2023-06-22T01:59:03;85501.69;;;17.63;23.41
55486;BME280;49383;-25.924;28.194;2023-06-22T02:01:26;85500.15;;;17.64;23.36
55486;BME280;49383;-25.924;28.194;2023-06-22T02:03:52;85499.68;;;17.71;23.35
55486;BME280;49383;-25.924;28.194;2023-06-22T02:06:17;85501.84;;;17.66;23.34
55486;BME280;49383;-25.924;28.194;2023-06-22T02:08:47;85504.86;;;17.60;23.37
55486;BME280;49383;-25.924;28.194;2023-06-22T02:11:04;85505.63;;;17.61;23.40
55486;BME280;49383;-25.924;28.194;2023-06-22T02:13:29;85508.51;;;17.60;23.40
55486;BME280;49383;-25.924;28.194;2023-06-22T02:15:55;85509.11;;;17.64;23.35
55486;BME280;49383;-25.924;28.194;2023-06-22T02:18:20;85508.17;;;17.58;23.36
55486;BME280;49383;-25.924;28.194;2023-06-22T02:20:45;85509.57;;;17.87;23.36
55486;BME280;49383;-25.924;28.194;2023-06-22T02:23:11;85509.48;;;17.59;23.37
55486;BME280;49383;-25.924;28.194;2023-06-22T02:25:37;85507.23;;;18.06;23.36
55486;BME280;49383;-25.924;28.194;2023-06-22T02:28:03;85508.16;;;17.58;23.33
55486;BME280;49383;-25.924;28.194;2023-06-22T02:30:29;85508.06;;;17.59;23.36
55486;BME280;49383;-25.924;28.194;2023-06-22T02:32:54;85507.63;;;17.53;23.38
55486;BME280;49383;-25.924;28.194;2023-06-22T02:35:20;85509.81;;;17.56;23.34
55486;BME280;49383;-25.924;28.194;2023-06-22T02:37:46;85509.49;;;17.51;23.39
55486;BME280;49383;-25.924;28.194;2023-06-22T02:40:12;85509.39;;;17.77;23.38
55486;BME280;49383;-25.924;28.194;2023-06-22T02:42:37;85511.11;;;17.51;23.35
55486;BME280;49383;-25.924;28.194;2023-06-22T02:45:03;85513.44;;;17.77;23.37
55486;BME280;49383;-25.924;28.194;2023-06-22T02:47:29;85517.24;;;17.48;23.40
55486;BME280;49383;-25.924;28.194;2023-06-22T02:49:54;85516.60;;;17.47;23.35
55486;BME280;49383;-25.924;28.194;2023-06-22T02:52:19;85518.10;;;17.47;23.33
55486;BME280;49383;-25.924;28.194;2023-06-22T02:54:45;85516.84;;;17.75;23.36
55486;BME280;49383;-25.924;28.194;2023-06-22T02:57:10;85519.50;;;17.72;23.38
55486;BME280;49383;-25.924;28.194;2023-06-22T02:59:37;85519.46;;;17.45;23.34
55486;BME280;49383;-25.924;28.194;2023-06-22T03:02:01;85517.79;;;17.71;23.35
55486;BME280;49383;-25.924;28.194;2023-06-22T03:04:27;85516.84;;;17.50;23.30
55486;BME280;49383;-25.924;28.194;2023-06-22T03:06:52;85515.95;;;17.46;23.34
55486;BME280;49383;-25.924;28.194;2023-06-22T03:09:18;85516.44;;;17.44;23.36
55486;BME280;49383;-25.924;28.194;2023-06-22T03:11:43;85516.43;;;17.95;23.32
55486;BME280;49383;-25.924;28.194;2023-06-22T03:14:09;85513.67;;;17.38;23.39
55486;BME280;49383;-25.924;28.194;2023-06-22T03:16:34;85509.32;;;17.69;23.34
55486;BME280;49383;-25.924;28.194;2023-06-22T03:19:00;85507.59;;;17.38;23.37
55486;BME280;49383;-25.924;28.194;2023-06-22T03:21:28;85508.88;;;17.42;23.32
55486;BME280;49383;-25.924;28.194;2023-06-22T03:23:52;85511.99;;;17.81;23.41
55486;BME280;49383;-25.924;28.194;2023-06-22T03:26:17;85514.96;;;17.38;23.35
55486;BME280;49383;-25.924;28.194;2023-06-22T03:28:42;85512.44;;;17.62;23.38
55486;BME280;49383;-25.924;28.194;2023-06-22T03:31:07;85510.00;;;17.33;23.38
55486;BME280;49383;-25.924;28.194;2023-06-22T03:33:33;85509.77;;;17.90;23.31
55486;BME280;49383;-25.924;28.194;2023-06-22T03:35:58;85506.87;;;17.68;23.33
55486;BME280;49383;-25.924;28.194;2023-06-22T03:38:24;85507.89;;;17.38;23.31
55486;BME280;49383;-25.924;28.194;2023-06-22T03:40:49;85505.34;;;17.40;23.31
55486;BME280;49383;-25.924;28.194;2023-06-22T03:43:15;85503.74;;;17.63;23.34
55486;BME280;49383;-25.924;28.194;2023-06-22T03:45:41;85505.82;;;17.32;23.33
55486;BME280;49383;-25.924;28.194;2023-06-22T03:48:06;85507.77;;;17.82;23.34
55486;BME280;49383;-25.924;28.194;2023-06-22T03:50:31;85510.76;;;17.80;23.36
55486;BME280;49383;-25.924;28.194;2023-06-22T03:52:57;85516.92;;;17.37;23.30
55486;BME280;49383;-25.924;28.194;2023-06-22T03:55:22;85516.99;;;17.35;23.32
55486;BME280;49383;-25.924;28.194;2023-06-22T03:57:48;85518.04;;;17.79;23.35
55486;BME280;49383;-25.924;28.194;2023-06-22T04:00:14;85525.50;;;17.55;23.36
55486;BME280;49383;-25.924;28.194;2023-06-22T04:02:39;85527.65;;;17.26;23.39
55486;BME280;49383;-25.924;28.194;2023-06-22T04:05:04;85527.05;;;17.75;23.37
55486;BME280;49383;-25.924;28.194;2023-06-22T04:07:29;85523.97;;;17.76;23.37
55486;BME280;49383;-25.924;28.194;2023-06-22T04:09:55;85524.98;;;17.58;23.30
55486;BME280;49383;-25.924;28.194;2023-06-22T04:12:20;85527.28;;;17.57;23.32
55486;BME280;49383;-25.924;28.194;2023-06-22T04:14:45;85531.85;;;17.56;23.32
55486;BME280;49383;-25.924;28.194;2023-06-22T04:17:11;85535.92;;;17.29;23.32
55486;BME280;49383;-25.924;28.194;2023-06-22T04:19:37;85540.56;;;17.78;23.29
55486;BME280;49383;-25.924;28.194;2023-06-22T04:22:02;85540.69;;;17.45;23.40
55486;BME280;49383;-25.924;28.194;2023-06-22T04:24:27;85540.52;;;17.76;23.32
55486;BME280;49383;-25.924;28.194;2023-06-22T04:26:53;85540.11;;;17.26;23.33
55486;BME280;49383;-25.924;28.194;2023-06-22T04:29:18;85541.99;;;17.26;23.33
55486;BME280;49383;-25.924;28.194;2023-06-22T04:31:43;85546.63;;;17.79;23.32
55486;BME280;49383;-25.924;28.194;2023-06-22T04:34:09;85547.71;;;17.46;23.38
55486;BME280;49383;-25.924;28.194;2023-06-22T04:36:36;85550.77;;;17.79;23.31
55486;BME280;49383;-25.924;28.194;2023-06-22T04:38:59;85554.57;;;17.18;23.38
55486;BME280;49383;-25.924;28.194;2023-06-22T04:41:24;85557.48;;;17.43;23.38
55486;BME280;49383;-25.924;28.194;2023-06-22T04:43:50;85560.74;;;17.66;23.39
55486;BME280;49383;-25.924;28.194;2023-06-22T04:46:15;85560.25;;;17.20;23.36
55486;BME280;49383;-25.924;28.194;2023-06-22T04:48:41;85558.49;;;17.31;23.32
55486;BME280;49383;-25.924;28.194;2023-06-22T04:51:06;85559.14;;;17.56;23.29
55486;BME280;49383;-25.924;28.194;2023-06-22T04:53:31;85565.13;;;17.24;23.32
55486;BME280;49383;-25.924;28.194;2023-06-22T04:55:57;85564.55;;;17.83;23.28
55486;BME280;49383;-25.924;28.194;2023-06-22T04:58:22;85574.15;;;17.26;23.34
55486;BME280;49383;-25.924;28.194;2023-06-22T05:00:47;85576.71;;;17.58;23.29
55486;BME280;49383;-25.924;28.194;2023-06-22T05:03:13;85578.09;;;17.23;23.33
55486;BME280;49383;-25.924;28.194;2023-06-22T05:05:38;85577.36;;;17.31;23.30
55486;BME280;49383;-25.924;28.194;2023-06-22T05:08:03;85575.54;;;17.57;23.34
55486;BME280;49383;-25.924;28.194;2023-06-22T05:10:29;85577.05;;;17.31;23.36
55486;BME280;49383;-25.924;28.194;2023-06-22T05:12:54;85570.89;;;17.39;23.33
55486;BME280;49383;-25.924;28.194;2023-06-22T05:15:19;85575.66;;;17.38;23.36
55486;BME280;49383;-25.924;28.194;2023-06-22T05:17:45;85578.34;;;17.77;23.33
55486;BME280;49383;-25.924;28.194;2023-06-22T05:20:11;85577.98;;;17.50;23.38
55486;BME280;49383;-25.924;28.194;2023-06-22T05:22:35;85574.49;;;17.50;23.42
55486;BME280;49383;-25.924;28.194;2023-06-22T05:25:01;85577.19;;;17.55;23.45
55486;BME280;49383;-25.924;28.194;2023-06-22T05:27:27;85575.44;;;17.61;23.44
55486;BME280;49383;-25.924;28.194;2023-06-22T05:29:53;85577.57;;;17.91;23.45
55486;BME280;49383;-25.924;28.194;2023-06-22T05:32:18;85581.87;;;18.12;23.51
55486;BME280;49383;-25.924;28.194;2023-06-22T05:34:43;85586.54;;;17.92;23.51
55486;BME280;49383;-25.924;28.194;2023-06-22T05:37:08;85592.23;;;17.77;23.46
55486;BME280;49383;-25.924;28.194;2023-06-22T05:39:33;85597.54;;;17.88;23.39
55486;BME280;49383;-25.924;28.194;2023-06-22T05:41:59;85601.45;;;18.06;23.28
55486;BME280;49383;-25.924;28.194;2023-06-22T05:44:24;85603.29;;;18.11;23.06
55486;BME280;49383;-25.924;28.194;2023-06-22T05:46:50;85607.00;;;18.51;22.97
55486;BME280;49383;-25.924;28.194;2023-06-22T05:49:16;85610.49;;;18.34;22.74
55486;BME280;49383;-25.924;28.194;2023-06-22T05:51:42;85613.15;;;18.80;22.42
55486;BME280;49383;-25.924;28.194;2023-06-22T05:54:06;85617.53;;;18.87;22.24
55486;BME280;49383;-25.924;28.194;2023-06-22T05:56:32;85617.74;;;19.19;22.00
55486;BME280;49383;-25.924;28.194;2023-06-22T05:58:57;85612.95;;;19.26;21.82
55486;BME280;49383;-25.924;28.194;2023-06-22T06:01:22;85611.68;;;19.26;21.97
55486;BME280;49383;-25.924;28.194;2023-06-22T06:03:47;85608.73;;;19.60;21.68
55486;BME280;49383;-25.924;28.194;2023-06-22T06:06:13;85611.22;;;19.73;21.64
55486;BME280;49383;-25.924;28.194;2023-06-22T06:08:39;85612.47;;;19.79;21.62
55486;BME280;49383;-25.924;28.194;2023-06-22T06:11:04;85612.37;;;19.52;21.63
55486;BME280;49383;-25.924;28.194;2023-06-22T06:13:29;85615.85;;;19.57;21.76
55486;BME280;49383;-25.924;28.194;2023-06-22T06:15:55;85619.40;;;19.42;21.63
55486;BME280;49383;-25.924;28.194;2023-06-22T06:18:20;85623.22;;;19.63;21.51
55486;BME280;49383;-25.924;28.194;2023-06-22T06:20:45;85620.81;;;19.60;21.76
55486;BME280;49383;-25.924;28.194;2023-06-22T06:23:11;85622.53;;;19.83;21.78
55486;BME280;49383;-25.924;28.194;2023-06-22T06:25:37;85626.03;;;19.96;21.67
55486;BME280;49383;-25.924;28.194;2023-06-22T06:28:02;85626.79;;;20.01;21.79
55486;BME280;49383;-25.924;28.194;2023-06-22T06:30:27;85628.53;;;19.88;21.60
55486;BME280;49383;-25.924;28.194;2023-06-22T06:32:53;85629.09;;;20.12;21.84
55486;BME280;49383;-25.924;28.194;2023-06-22T06:35:18;85626.59;;;20.00;21.64
55486;BME280;49383;-25.924;28.194;2023-06-22T06:37:46;85627.72;;;20.03;21.65
55486;BME280;49383;-25.924;28.194;2023-06-22T06:40:10;85633.74;;;20.02;21.85
55486;BME280;49383;-25.924;28.194;2023-06-22T06:42:34;85638.47;;;20.13;21.69
55486;BME280;49383;-25.924;28.194;2023-06-22T06:45:00;85643.21;;;19.85;21.81
55486;BME280;49383;-25.924;28.194;2023-06-22T06:47:25;85643.47;;;20.20;21.85
55486;BME280;49383;-25.924;28.194;2023-06-22T06:49:50;85645.30;;;20.28;21.82
55486;BME280;49383;-25.924;28.194;2023-06-22T06:52:15;85647.64;;;20.37;21.77
55486;BME280;49383;-25.924;28.194;2023-06-22T06:54:41;85650.30;;;20.14;21.67
55486;BME280;49383;-25.924;28.194;2023-06-22T06:57:06;85652.07;;;20.34;21.97
55486;BME280;49383;-25.924;28.194;2023-06-22T06:59:32;85655.81;;;20.22;21.71
55486;BME280;49383;-25.924;28.194;2023-06-22T07:01:57;85654.41;;;20.54;21.67
55486;BME280;49383;-25.924;28.194;2023-06-22T07:04:23;85655.52;;;20.64;21.72
55486;BME280;49383;-25.924;28.194;2023-06-22T07:06:48;85654.62;;;20.41;21.88
55486;BME280;49383;-25.924;28.194;2023-06-22T07:09:14;85654.50;;;20.45;21.85
55486;BME280;49383;-25.924;28.194;2023-06-22T07:11:39;85655.27;;;20.41;21.81
55486;BME280;49383;-25.924;28.194;2023-06-22T07:14:05;85657.78;;;20.72;21.96
55486;BME280;49383;-25.924;28.194;2023-06-22T07:16:30;85657.57;;;20.82;21.94
55486;BME280;49383;-25.924;28.194;2023-06-22T07:18:56;85657.77;;;20.64;21.70
55486;BME280;49383;-25.924;28.194;2023-06-22T07:21:21;85661.44;;;20.37;21.85
55486;BME280;49383;-25.924;28.194;2023-06-22T07:23:47;85660.17;;;20.35;21.81
55486;BME280;49383;-25.924;28.194;2023-06-22T07:26:12;85659.38;;;20.65;22.01
55486;BME280;49383;-25.924;28.194;2023-06-22T07:28:38;85660.81;;;20.54;21.86
55486;BME280;49383;-25.924;28.194;2023-06-22T07:31:04;85663.63;;;21.05;22.08
55486;BME280;49383;-25.924;28.194;2023-06-22T07:33:29;85666.00;;;21.09;21.79
55486;BME280;49383;-25.924;28.194;2023-06-22T07:35:55;85667.42;;;21.06;21.91
55486;BME280;49383;-25.924;28.194;2023-06-22T07:38:20;85668.57;;;20.81;21.96
55486;BME280;49383;-25.924;28.194;2023-06-22T07:40:46;85671.85;;;21.02;21.85
55486;BME280;49383;-25.924;28.194;2023-06-22T07:43:11;85673.70;;;20.75;21.81
55486;BME280;49383;-25.924;28.194;2023-06-22T07:45:38;85677.53;;;20.72;21.93
55486;BME280;49383;-25.924;28.194;2023-06-22T07:48:02;85680.28;;;20.82;21.78
55486;BME280;49383;-25.924;28.194;2023-06-22T07:50:27;85679.75;;;20.80;21.95
55486;BME280;49383;-25.924;28.194;2023-06-22T07:52:52;85677.48;;;20.83;21.80
55486;BME280;49383;-25.924;28.194;2023-06-22T07:55:18;85675.30;;;20.87;21.83
55486;BME280;49383;-25.924;28.194;2023-06-22T07:57:44;85676.76;;;20.84;22.12
55486;BME280;49383;-25.924;28.194;2023-06-22T08:00:10;85677.71;;;20.87;22.07
55486;BME280;49383;-25.924;28.194;2023-06-22T08:02:34;85678.30;;;20.91;21.86
55486;BME280;49383;-25.924;28.194;2023-06-22T08:04:59;85679.33;;;20.94;21.91
55486;BME280;49383;-25.924;28.194;2023-06-22T08:07:25;85680.17;;;20.94;22.22
55486;BME280;49383;-25.924;28.194;2023-06-22T08:09:51;85682.19;;;21.16;21.69
55486;BME280;49383;-25.924;28.194;2023-06-22T08:12:16;85680.49;;;21.10;22.10
55486;BME280;49383;-25.924;28.194;2023-06-22T08:14:43;85679.77;;;21.40;21.86
55486;BME280;49383;-25.924;28.194;2023-06-22T08:17:07;85679.40;;;21.18;22.00
55486;BME280;49383;-25.924;28.194;2023-06-22T08:19:32;85680.80;;;20.92;21.85
55486;BME280;49383;-25.924;28.194;2023-06-22T08:21:58;85677.89;;;20.88;22.24
55486;BME280;49383;-25.924;28.194;2023-06-22T08:24:23;85674.37;;;21.19;21.94
55486;BME280;49383;-25.924;28.194;2023-06-22T08:26:51;85671.86;;;21.20;21.84
55486;BME280;49383;-25.924;28.194;2023-06-22T08:29:14;85672.14;;;21.09;21.62
55486;BME280;49383;-25.924;28.194;2023-06-22T08:31:40;85673.49;;;21.38;21.77
55486;BME280;49383;-25.924;28.194;2023-06-22T08:34:05;85671.76;;;21.30;21.71
55486;BME280;49383;-25.924;28.194;2023-06-22T08:36:31;85670.21;;;21.35;21.72
55486;BME280;49383;-25.924;28.194;2023-06-22T08:38:56;85667.00;;;21.38;21.78
55486;BME280;49383;-25.924;28.194;2023-06-22T08:41:22;85666.37;;;21.42;21.69
55486;BME280;49383;-25.924;28.194;2023-06-22T08:43:47;85668.40;;;21.60;21.53
55486;BME280;49383;-25.924;28.194;2023-06-22T08:46:13;85664.77;;;21.44;21.68
55486;BME280;49383;-25.924;28.194;2023-06-22T08:48:38;85664.53;;;21.46;21.73
55486;BME280;49383;-25.924;28.194;2023-06-22T08:51:04;85661.43;;;21.43;21.80
55486;BME280;49383;-25.924;28.194;2023-06-22T08:53:29;85662.30;;;21.47;21.64
55486;BME280;49383;-25.924;28.194;2023-06-22T08:55:54;85660.38;;;21.52;21.68
55486;BME280;49383;-25.924;28.194;2023-06-22T08:58:20;85659.97;;;21.50;21.70
55486;BME280;49383;-25.924;28.194;2023-06-22T09:00:45;85660.47;;;21.61;21.55
55486;BME280;49383;-25.924;28.194;2023-06-22T09:03:11;85655.63;;;21.45;21.93
55486;BME280;49383;-25.924;28.194;2023-06-22T09:05:38;85657.12;;;21.27;21.90
55486;BME280;49383;-25.924;28.194;2023-06-22T09:08:02;85654.49;;;21.46;21.86
55486;BME280;49383;-25.924;28.194;2023-06-22T09:10:28;85654.49;;;21.55;21.61
55486;BME280;49383;-25.924;28.194;2023-06-22T09:12:53;85653.03;;;21.81;21.62
55486;BME280;49383;-25.924;28.194;2023-06-22T09:15:18;85650.58;;;21.63;21.57
55486;BME280;49383;-25.924;28.194;2023-06-22T09:17:44;85646.71;;;21.66;21.56
55486;BME280;49383;-25.924;28.194;2023-06-22T09:20:10;85643.32;;;21.51;21.43
55486;BME280;49383;-25.924;28.194;2023-06-22T09:22:35;85644.81;;;21.72;21.55
55486;BME280;49383;-25.924;28.194;2023-06-22T09:25:01;85643.10;;;21.69;21.46
55486;BME280;49383;-25.924;28.194;2023-06-22T09:27:26;85642.91;;;21.71;21.66
55486;BME280;49383;-25.924;28.194;2023-06-22T09:29:51;85641.05;;;21.71;21.47
55486;BME280;49383;-25.924;28.194;2023-06-22T09:32:16;85640.60;;;21.71;21.52
55486;BME280;49383;-25.924;28.194;2023-06-22T09:34:41;85636.91;;;21.74;21.39
55486;BME280;49383;-25.924;28.194;2023-06-22T09:37:07;85633.74;;;21.56;21.42
55486;BME280;49383;-25.924;28.194;2023-06-22T09:39:31;85629.48;;;21.85;21.27
55486;BME280;49383;-25.924;28.194;2023-06-22T09:41:59;85629.32;;;21.69;21.50
55486;BME280;49383;-25.924;28.194;2023-06-22T09:44:22;85627.91;;;21.72;21.36
55486;BME280;49383;-25.924;28.194;2023-06-22T09:46:47;85625.17;;;21.63;21.62
55486;BME280;49383;-25.924;28.194;2023-06-22T09:49:12;85625.84;;;21.78;21.33
55486;BME280;49383;-25.924;28.194;2023-06-22T09:51:37;85625.34;;;21.91;21.46
55486;BME280;49383;-25.924;28.194;2023-06-22T09:54:03;85619.73;;;21.91;21.44
55486;BME280;49383;-25.924;28.194;2023-06-22T09:56:28;85617.50;;;22.16;21.42
55486;BME280;49383;-25.924;28.194;2023-06-22T09:58:53;85616.04;;;21.60;21.43
55486;BME280;49383;-25.924;28.194;2023-06-22T10:01:18;85614.37;;;21.52;21.50
55486;BME280;49383;-25.924;28.194;2023-06-22T10:03:43;85608.04;;;21.90;21.56
55486;BME280;49383;-25.924;28.194;2023-06-22T10:06:08;85607.50;;;21.76;21.64
55486;BME280;49383;-25.924;28.194;2023-06-22T10:08:33;85608.16;;;21.66;21.75
55486;BME280;49383;-25.924;28.194;2023-06-22T10:10:58;85607.43;;;21.39;21.90
55486;BME280;49383;-25.924;28.194;2023-06-22T10:13:23;85602.49;;;21.34;21.91
55486;BME280;49383;-25.924;28.194;2023-06-22T10:15:48;85598.26;;;21.50;21.98
55486;BME280;49383;-25.924;28.194;2023-06-22T10:18:13;85593.92;;;21.05;22.11
55486;BME280;49383;-25.924;28.194;2023-06-22T10:20:39;85592.16;;;20.91;22.20
55486;BME280;49383;-25.924;28.194;2023-06-22T10:23:04;85583.09;;;20.88;22.28
55486;BME280;49383;-25.924;28.194;2023-06-22T10:25:29;85580.29;;;20.82;22.26
55486;BME280;49383;-25.924;28.194;2023-06-22T10:27:54;85583.02;;;20.64;22.37
55486;BME280;49383;-25.924;28.194;2023-06-22T10:30:19;85578.27;;;20.80;22.39
55486;BME280;49383;-25.924;28.194;2023-06-22T10:32:44;85577.21;;;20.68;22.54
55486;BME280;49383;-25.924;28.194;2023-06-22T10:35:10;85578.44;;;20.89;22.52
55486;BME280;49383;-25.924;28.194;2023-06-22T10:37:36;85572.62;;;20.78;22.62
55486;BME280;49383;-25.924;28.194;2023-06-22T10:40:00;85569.29;;;20.48;22.63
55486;BME280;49383;-25.924;28.194;2023-06-22T10:42:25;85565.05;;;20.35;22.68
55486;BME280;49383;-25.924;28.194;2023-06-22T10:44:50;85563.52;;;20.73;22.60
55486;BME280;49383;-25.924;28.194;2023-06-22T10:47:15;85557.35;;;20.55;22.75
55486;BME280;49383;-25.924;28.194;2023-06-22T10:49:41;85554.44;;;20.54;22.77
55486;BME280;49383;-25.924;28.194;2023-06-22T10:52:07;85552.33;;;20.29;22.73
55486;BME280;49383;-25.924;28.194;2023-06-22T10:54:32;85548.14;;;20.47;22.79
55486;BME280;49383;-25.924;28.194;2023-06-22T10:56:56;85543.96;;;20.50;22.80
55486;BME280;49383;-25.924;28.194;2023-06-22T10:59:21;85541.26;;;20.41;22.81
55486;BME280;49383;-25.924;28.194;2023-06-22T11:01:47;85537.76;;;20.29;22.90
55486;BME280;49383;-25.924;28.194;2023-06-22T11:04:12;85536.55;;;20.34;22.85
55486;BME280;49383;-25.924;28.194;2023-06-22T11:06:37;85532.48;;;20.27;22.91
55486;BME280;49383;-25.924;28.194;2023-06-22T11:09:02;85529.60;;;20.71;22.93
55486;BME280;49383;-25.924;28.194;2023-06-22T11:11:27;85529.75;;;20.43;22.95
55486;BME280;49383;-25.924;28.194;2023-06-22T11:13:53;85527.57;;;20.20;22.97
55486;BME280;49383;-25.924;28.194;2023-06-22T11:16:18;85528.86;;;20.21;22.97
55486;BME280;49383;-25.924;28.194;2023-06-22T11:18:43;85527.17;;;20.20;22.97
55486;BME280;49383;-25.924;28.194;2023-06-22T11:21:08;85520.90;;;20.25;23.07
55486;BME280;49383;-25.924;28.194;2023-06-22T11:23:33;85522.16;;;20.22;23.12
55486;BME280;49383;-25.924;28.194;2023-06-22T11:25:58;85523.48;;;20.21;23.12
55486;BME280;49383;-25.924;28.194;2023-06-22T11:28:23;85522.05;;;20.20;23.10
55486;BME280;49383;-25.924;28.194;2023-06-22T11:30:48;85521.50;;;20.01;23.07
55486;BME280;49383;-25.924;28.194;2023-06-22T11:33:14;85520.58;;;20.15;23.13
55486;BME280;49383;-25.924;28.194;2023-06-22T11:35:38;85517.64;;;20.29;23.17
55486;BME280;49383;-25.924;28.194;2023-06-22T11:38:03;85518.40;;;19.87;23.15
55486;BME280;49383;-25.924;28.194;2023-06-22T11:40:29;85516.00;;;20.01;23.18
55486;BME280;49383;-25.924;28.194;2023-06-22T11:42:54;85512.70;;;19.96;23.24
55486;BME280;49383;-25.924;28.194;2023-06-22T11:45:19;85509.21;;;19.89;23.29
55486;BME280;49383;-25.924;28.194;2023-06-22T11:47:44;85505.36;;;19.98;23.21
55486;BME280;49383;-25.924;28.194;2023-06-22T11:50:10;85502.88;;;19.95;23.21
55486;BME280;49383;-25.924;28.194;2023-06-22T11:52:35;85500.09;;;19.96;23.19
55486;BME280;49383;-25.924;28.194;2023-06-22T11:54:59;85497.56;;;20.14;23.23
55486;BME280;49383;-25.924;28.194;2023-06-22T11:57:24;85492.93;;;19.74;23.20
55486;BME280;49383;-25.924;28.194;2023-06-22T11:59:50;85492.11;;;19.86;23.24
55486;BME280;49383;-25.924;28.194;2023-06-22T12:02:15;85492.44;;;20.12;23.23
55486;BME280;49383;-25.924;28.194;2023-06-22T12:04:40;85493.41;;;19.99;23.31
55486;BME280;49383;-25.924;28.194;2023-06-22T12:07:05;85494.20;;;20.04;23.27
55486;BME280;49383;-25.924;28.194;2023-06-22T12:09:30;85491.98;;;19.83;23.25
55486;BME280;49383;-25.924;28.194;2023-06-22T12:11:56;85493.35;;;20.04;23.25
55486;BME280;49383;-25.924;28.194;2023-06-22T12:14:21;85489.63;;;20.08;23.21
55486;BME280;49383;-25.924;28.194;2023-06-22T12:16:46;85489.52;;;20.05;23.22
55486;BME280;49383;-25.924;28.194;2023-06-22T12:19:12;85492.03;;;20.10;23.18
55486;BME280;49383;-25.924;28.194;2023-06-22T12:21:37;85492.02;;;20.09;23.20
55486;BME280;49383;-25.924;28.194;2023-06-22T12:24:01;85490.48;;;19.78;23.24
55486;BME280;49383;-25.924;28.194;2023-06-22T12:26:27;85491.60;;;20.09;23.16
55486;BME280;49383;-25.924;28.194;2023-06-22T12:28:52;85490.52;;;20.04;23.22